createdAt,value
2023-03-22T00:03:04.840Z,87.06
2023-03-22T00:06:13.638Z,87.06
2023-03-22T00:09:21.813Z,87.13
2023-03-22T00:12:37.809Z,86.73
2023-03-22T00:15:47.087Z,87.84
2023-03-22T00:19:02.839Z,88.24
2023-03-22T00:22:11.827Z,88.36
2023-03-22T00:25:20.414Z,89.25
2023-03-22T00:28:28.800Z,89.40
2023-03-22T00:31:37.502Z,89.67
2023-03-22T00:35:01.832Z,90.00
2023-03-22T00:38:03.801Z,90.38
2023-03-22T00:41:23.835Z,90.71
2023-03-22T00:44:31.832Z,90.97
2023-03-22T00:47:40.470Z,91.25
2023-03-22T00:50:48.832Z,91.31
2023-03-22T00:54:03.829Z,91.89
2023-03-22T00:57:12.382Z,91.93
2023-03-22T01:00:20.791Z,92.32
2023-03-22T01:07:39.809Z,92.66
2023-03-22T01:10:55.833Z,93.40
2023-03-22T01:14:04.495Z,93.50
2023-03-22T01:17:18.852Z,93.80
2023-03-22T01:20:33.837Z,93.59
2023-03-22T01:23:35.791Z,94.23
2023-03-22T01:26:50.814Z,94.39
2023-03-22T01:29:58.831Z,95.22
2023-03-22T01:33:20.802Z,95.51
2023-03-22T01:36:36.879Z,96.02
2023-03-22T01:39:38.788Z,96.15
2023-03-22T01:42:53.856Z,96.50
2023-03-22T01:46:02.511Z,96.71
2023-03-22T01:49:23.886Z,97.11
2023-03-22T01:52:32.827Z,97.39
2023-03-22T01:55:42.366Z,97.84
2023-03-22T01:58:50.842Z,97.88
2023-03-22T02:02:06.842Z,98.16
2023-03-22T02:05:15.660Z,98.46
2023-03-22T02:08:30.857Z,98.46
2023-03-22T02:11:45.843Z,98.58
2023-03-22T02:15:04.369Z,98.28
2023-03-22T02:18:52.838Z,98.33
2023-03-22T02:22:25.844Z,98.80
2023-03-22T02:26:06.842Z,98.85
2023-03-22T02:29:43.848Z,98.87
2023-03-22T02:33:33.820Z,99.20
2023-03-22T02:36:55.751Z,99.54
2023-03-22T02:40:16.810Z,99.86
2023-03-22T02:43:35.837Z,99.86
2023-03-22T02:46:54.823Z,100.00
2023-03-22T02:50:48.831Z,100.00
2023-03-22T02:54:17.839Z,100.00
2023-03-22T02:57:33.427Z,100.00
2023-03-22T03:00:49.885Z,100.00
2023-03-22T03:04:09.850Z,100.00
2023-03-22T03:07:24.475Z,100.00
2023-03-22T03:10:41.281Z,100.00
2023-03-22T03:13:53.853Z,100.00
2023-03-22T03:17:11.226Z,100.00
2023-03-22T03:20:26.863Z,100.00
2023-03-22T03:24:03.233Z,100.00
2023-03-22T03:27:34.836Z,100.00
2023-03-22T03:30:59.450Z,100.00
2023-03-22T03:34:25.842Z,100.00
2023-03-22T03:37:39.549Z,100.00
2023-03-22T03:41:04.832Z,100.00
2023-03-22T03:44:21.825Z,100.00
2023-03-22T03:47:25.178Z,100.00
2023-03-22T03:50:41.079Z,100.00
2023-03-22T03:53:49.529Z,100.00
2023-03-22T03:56:57.825Z,100.00
2023-03-22T04:00:07.196Z,98.55
2023-03-22T04:03:22.834Z,98.29
2023-03-22T04:06:31.422Z,98.78
2023-03-22T04:09:42.816Z,99.57
2023-03-22T04:12:57.865Z,99.83
2023-03-22T04:16:05.840Z,100.00
2023-03-22T04:19:14.789Z,100.00
2023-03-22T04:22:30.821Z,100.00
2023-03-22T04:25:32.784Z,100.00
2023-03-22T04:28:47.824Z,100.00
2023-03-22T04:32:02.851Z,100.00
2023-03-22T04:35:11.410Z,100.00
2023-03-22T04:38:25.880Z,100.00
2023-03-22T04:41:41.885Z,100.00
2023-03-22T04:44:44.012Z,100.00
2023-03-22T04:47:58.881Z,100.00
2023-03-22T04:51:15.848Z,100.00
2023-03-22T04:54:31.835Z,100.00
2023-03-22T04:57:46.857Z,100.00
2023-03-22T05:00:55.462Z,100.00
2023-03-22T05:04:10.884Z,100.00
2023-03-22T05:07:12.829Z,100.00
2023-03-22T05:10:27.817Z,100.00
2023-03-22T05:13:37.810Z,100.00
2023-03-22T05:16:52.842Z,100.00
2023-03-22T05:20:00.864Z,100.00
2023-03-22T05:23:16.856Z,100.00
2023-03-22T05:26:32.846Z,100.00
2023-03-22T05:29:48.830Z,100.00
2023-03-22T05:33:02.478Z,100.00
2023-03-22T05:36:27.823Z,100.00
2023-03-22T05:39:36.564Z,99.87
2023-03-22T05:42:44.828Z,99.81
2023-03-22T05:45:59.849Z,99.73
2023-03-22T05:49:10.065Z,99.16
2023-03-22T05:52:26.869Z,98.61
2023-03-22T05:55:35.503Z,97.06
2023-03-22T05:58:44.868Z,93.96
2023-03-22T06:01:59.889Z,94.11
2023-03-22T06:05:16.846Z,95.45
2023-03-22T06:08:26.708Z,96.23
2023-03-22T06:11:35.773Z,95.83
2023-03-22T06:14:50.848Z,94.83
2023-03-22T06:18:05.859Z,94.05
2023-03-22T06:21:20.828Z,95.50
2023-03-22T06:24:29.850Z,95.27
2023-03-22T06:27:44.841Z,96.28
2023-03-22T06:30:53.530Z,92.92
2023-03-22T06:34:01.823Z,91.33
2023-03-22T06:37:17.136Z,88.08
2023-03-22T06:40:25.841Z,85.38
2023-03-22T06:43:41.883Z,84.44
2023-03-22T06:46:50.819Z,83.23
2023-03-22T06:50:05.894Z,82.95
2023-03-22T06:53:14.608Z,79.82
2023-03-22T06:56:22.835Z,79.32
2023-03-22T06:59:31.789Z,78.45
2023-03-22T07:02:40.845Z,76.46
2023-03-22T07:05:55.857Z,76.34
2023-03-22T07:09:04.664Z,75.83
2023-03-22T07:12:19.834Z,75.98
2023-03-22T07:15:36.900Z,76.25
2023-03-22T07:18:38.942Z,76.10
2023-03-22T07:21:53.862Z,74.69
2023-03-22T07:24:58.853Z,75.91
2023-03-22T07:28:14.885Z,76.04
2023-03-22T07:31:29.854Z,75.33
2023-03-22T07:34:38.861Z,74.43
2023-03-22T07:37:54.122Z,75.07
2023-03-22T07:41:02.847Z,74.74
2023-03-22T07:44:18.503Z,73.32
2023-03-22T07:47:40.357Z,71.93
2023-03-22T07:50:56.864Z,72.11
2023-03-22T07:53:58.960Z,70.86
2023-03-22T07:57:15.759Z,71.89
2023-03-22T08:00:18.148Z,71.55
2023-03-22T08:03:32.995Z,70.64
2023-03-22T08:06:50.101Z,68.92
2023-03-22T08:09:59.347Z,69.71
2023-03-22T08:13:07.628Z,67.79
2023-03-22T08:16:22.883Z,68.50
2023-03-22T08:19:24.827Z,66.84
2023-03-22T08:22:39.868Z,66.11
2023-03-22T08:25:48.895Z,67.43
2023-03-22T08:29:03.968Z,68.08
2023-03-22T08:32:19.880Z,67.40
2023-03-22T08:35:36.694Z,68.36
2023-03-22T08:38:52.869Z,69.42
2023-03-22T08:42:01.611Z,68.37
2023-03-22T08:45:17.851Z,69.04
2023-03-22T08:48:32.967Z,67.69
2023-03-22T08:51:42.078Z,68.50
2023-03-22T08:54:58.149Z,66.93
2023-03-22T08:58:07.857Z,67.88
2023-03-22T09:01:17.690Z,67.93
2023-03-22T09:04:32.885Z,67.69
2023-03-22T09:07:34.906Z,67.20
2023-03-22T09:10:50.013Z,68.25
2023-03-22T09:14:09.046Z,67.85
2023-03-22T09:17:22.606Z,66.99
2023-03-22T09:20:38.215Z,67.25
2023-03-22T09:23:46.829Z,66.31
2023-03-22T09:26:58.095Z,66.33
2023-03-22T09:45:47.854Z,64.53
2023-03-22T09:48:58.600Z,63.30
2023-03-22T09:52:23.699Z,63.47
2023-03-22T09:55:57.302Z,62.76
2023-03-22T09:59:05.873Z,61.80
2023-03-22T10:02:39.956Z,62.63
2023-03-22T10:10:13.883Z,62.24
2023-03-22T10:13:35.026Z,63.28
2023-03-22T10:16:55.379Z,64.45
2023-03-22T10:20:25.880Z,63.62
2023-03-22T10:23:39.373Z,62.75
2023-03-22T10:26:54.987Z,62.03
2023-03-22T10:30:30.151Z,62.03
2023-03-22T10:34:06.266Z,63.08
2023-03-22T10:37:26.892Z,64.75
2023-03-22T10:40:38.942Z,63.34
2023-03-22T10:44:00.584Z,64.31
2023-03-22T10:47:17.933Z,64.99
2023-03-22T10:50:34.003Z,65.02
2023-03-22T10:53:47.865Z,64.44
2023-03-22T10:57:02.899Z,64.87
2023-03-22T11:00:12.894Z,65.49
2023-03-22T11:03:36.484Z,65.59
2023-03-22T11:06:58.875Z,65.70
2023-03-22T11:10:09.548Z,65.99
2023-03-22T11:13:26.951Z,65.97
2023-03-22T11:16:53.939Z,67.41
2023-03-22T11:20:00.301Z,67.28
2023-03-22T11:23:19.886Z,68.35
2023-03-22T11:31:05.885Z,69.08
2023-03-22T11:34:24.883Z,68.89
2023-03-22T11:37:27.342Z,69.27
2023-03-22T11:40:43.277Z,68.95
2023-03-22T11:44:08.881Z,69.10
2023-03-22T11:47:23.887Z,70.14
2023-03-22T11:50:36.896Z,69.36
2023-03-22T11:53:54.881Z,69.57
2023-03-22T11:56:59.896Z,70.63
2023-03-22T12:00:28.892Z,70.74
2023-03-22T12:03:39.448Z,70.56
2023-03-22T12:07:01.900Z,70.65
2023-03-22T12:10:43.900Z,70.49
2023-03-22T12:14:11.897Z,70.76
2023-03-22T12:17:26.822Z,69.86
2023-03-22T12:21:01.961Z,69.56
2023-03-22T12:24:34.911Z,68.99
2023-03-22T12:27:46.975Z,68.79
2023-03-22T12:31:02.970Z,69.08
2023-03-22T12:34:21.629Z,68.16
2023-03-22T12:37:37.906Z,65.62
2023-03-22T12:40:54.947Z,64.76
2023-03-22T12:44:55.532Z,65.18
2023-03-22T12:49:10.910Z,65.00
2023-03-22T12:52:50.921Z,64.15
2023-03-22T12:56:09.830Z,63.85
2023-03-22T12:59:30.472Z,63.68
2023-03-22T13:02:41.990Z,64.48
2023-03-22T13:06:01.282Z,63.37
2023-03-22T13:09:45.909Z,63.68
2023-03-22T13:13:24.970Z,62.68
2023-03-22T13:17:12.923Z,63.00
2023-03-22T13:20:24.801Z,62.48
2023-03-22T13:23:40.109Z,60.63
2023-03-22T13:26:55.997Z,59.52
2023-03-22T13:30:32.913Z,58.56
2023-03-22T13:33:41.889Z,57.61
2023-03-22T13:37:04.175Z,55.27
2023-03-22T13:40:27.222Z,54.62
2023-03-22T13:43:41.734Z,53.73
2023-03-22T13:46:58.908Z,54.88
2023-03-22T13:50:25.448Z,54.59
2023-03-22T13:53:36.953Z,53.62
2023-03-22T13:57:01.999Z,50.03
2023-03-22T14:00:40.443Z,50.97
2023-03-22T14:03:53.073Z,49.89
2023-03-22T14:07:52.939Z,50.94
2023-03-22T14:11:24.572Z,50.17
2023-03-22T14:14:38.908Z,49.69
2023-03-22T14:18:12.980Z,49.82
2023-03-22T14:21:38.924Z,49.55
